createdAt,value
2022-11-20T00:00:28.496Z,91.82
2022-11-20T00:01:28.448Z,92.13
2022-11-20T00:02:28.512Z,92.03
2022-11-20T00:03:28.445Z,92.45
2022-11-20T00:04:28.432Z,92.77
2022-11-20T00:05:28.431Z,92.77
2022-11-20T00:06:28.562Z,92.62
2022-11-20T00:07:28.470Z,92.94
2022-11-20T00:08:28.425Z,92.83
2022-11-20T00:09:28.434Z,92.73
2022-11-20T00:10:28.421Z,92.73
2022-11-20T00:11:28.406Z,92.77
2022-11-20T00:12:28.957Z,92.41
2022-11-20T00:13:28.391Z,92.62
2022-11-20T00:14:28.400Z,92.62
2022-11-20T00:15:28.365Z,92.35
2022-11-20T00:16:28.383Z,92.30
2022-11-20T00:17:28.374Z,92.45
2022-11-20T00:18:28.376Z,91.61
2022-11-20T00:19:28.356Z,91.61
2022-11-20T00:20:28.354Z,92.24
2022-11-20T00:21:28.332Z,92.13
2022-11-20T00:22:28.341Z,92.77
2022-11-20T00:23:28.326Z,92.24
2022-11-20T00:24:28.319Z,91.82
2022-11-20T00:25:28.317Z,91.71
2022-11-20T00:26:28.330Z,92.35
2022-11-20T00:27:28.292Z,92.24
2022-11-20T00:28:28.314Z,91.14
2022-11-20T00:29:28.271Z,92.45
2022-11-20T00:30:28.279Z,92.29
2022-11-20T00:31:28.274Z,92.35
2022-11-20T00:32:28.312Z,92.35
2022-11-20T00:33:28.265Z,92.24
2022-11-20T00:34:28.289Z,92.24
2022-11-20T00:35:28.234Z,92.35
2022-11-20T00:36:28.236Z,92.35
2022-11-20T00:37:28.347Z,92.24
2022-11-20T00:38:28.273Z,92.07
2022-11-20T00:39:28.216Z,92.35
2022-11-20T00:40:28.236Z,91.71
2022-11-20T00:41:28.203Z,92.13
2022-11-20T00:42:28.220Z,92.13
2022-11-20T00:43:28.202Z,91.39
2022-11-20T00:44:28.246Z,91.61
2022-11-20T00:45:28.184Z,91.44
2022-11-20T00:46:28.228Z,90.59
2022-11-20T00:47:28.162Z,91.01
2022-11-20T00:48:28.196Z,90.80
2022-11-20T00:49:28.160Z,90.55
2022-11-20T00:50:28.159Z,91.33
2022-11-20T00:51:28.167Z,90.69
2022-11-20T00:52:28.159Z,90.80
2022-11-20T00:53:28.150Z,91.58
2022-11-20T00:54:28.306Z,91.64
2022-11-20T00:55:28.135Z,91.96
2022-11-20T00:56:28.145Z,92.49
2022-11-20T00:57:28.157Z,92.49
2022-11-20T00:58:28.124Z,92.22
2022-11-20T00:59:28.107Z,92.39
2022-11-20T01:00:28.116Z,92.64
2022-11-20T01:01:28.929Z,92.43
2022-11-20T01:02:28.094Z,92.49
2022-11-20T01:03:28.091Z,92.29
2022-11-20T01:04:28.078Z,91.90
2022-11-20T01:05:28.087Z,92.29
2022-11-20T01:06:29.477Z,92.32
2022-11-20T01:07:28.803Z,92.54
2022-11-20T01:08:28.116Z,92.11
2022-11-20T01:09:28.053Z,92.43
2022-11-20T01:10:28.071Z,92.32
2022-11-20T01:11:28.057Z,92.00
2022-11-20T01:12:28.059Z,91.79
2022-11-20T01:13:28.033Z,91.37
2022-11-20T01:14:28.043Z,91.69
2022-11-20T01:15:28.016Z,92.00
2022-11-20T01:16:28.595Z,92.15
2022-11-20T01:17:49.010Z,92.00
2022-11-20T01:18:28.010Z,92.68
2022-11-20T01:19:27.999Z,92.22
2022-11-20T01:20:30.584Z,92.22
2022-11-20T01:21:27.988Z,92.32
2022-11-20T01:22:28.915Z,92.15
2022-11-20T01:23:28.167Z,92.26
2022-11-20T01:24:27.973Z,92.36
2022-11-20T01:25:27.967Z,92.36
2022-11-20T01:26:27.986Z,92.26
2022-11-20T01:27:27.979Z,92.15
2022-11-20T01:28:27.983Z,92.26
2022-11-20T01:29:28.689Z,92.36
2022-11-20T01:30:27.971Z,91.52
2022-11-20T01:31:27.940Z,91.63
2022-11-20T01:32:27.924Z,92.64
2022-11-20T01:33:27.927Z,91.73
2022-11-20T01:34:27.942Z,91.58
2022-11-20T01:35:27.903Z,91.20
2022-11-20T01:36:27.905Z,90.56
2022-11-20T01:37:27.908Z,90.78
2022-11-20T01:38:27.897Z,92.58
2022-11-20T01:39:27.970Z,92.47
2022-11-20T01:40:27.965Z,92.54
2022-11-20T01:41:27.887Z,91.47
2022-11-20T01:42:27.885Z,91.63
2022-11-20T01:43:27.884Z,91.69
2022-11-20T01:44:27.871Z,91.58
2022-11-20T01:45:27.968Z,91.47
2022-11-20T01:46:28.037Z,91.37
2022-11-20T01:47:27.859Z,91.58
2022-11-20T01:48:27.830Z,91.47
2022-11-20T01:49:27.841Z,91.47
2022-11-20T01:50:28.287Z,91.47
2022-11-20T01:51:27.819Z,90.84
2022-11-20T01:52:27.817Z,91.58
2022-11-20T01:53:27.834Z,91.47
2022-11-20T01:54:27.796Z,91.05
2022-11-20T01:55:28.250Z,91.20
2022-11-20T01:56:27.809Z,90.78
2022-11-20T01:57:27.804Z,91.20
2022-11-20T01:58:27.776Z,91.63
2022-11-20T01:59:27.794Z,91.27
2022-11-20T02:00:27.831Z,91.30
2022-11-20T02:01:27.962Z,91.37
2022-11-20T02:02:27.767Z,91.47
2022-11-20T02:03:27.760Z,91.73
2022-11-20T02:04:27.819Z,92.05
2022-11-20T02:05:27.760Z,91.79
2022-11-20T02:06:27.743Z,91.47
2022-11-20T02:07:27.822Z,90.56
2022-11-20T02:08:27.723Z,91.09
2022-11-20T02:09:27.733Z,91.73
2022-11-20T02:10:27.728Z,91.63
2022-11-20T02:11:27.717Z,92.36
2022-11-20T02:12:27.729Z,92.36
2022-11-20T02:13:27.719Z,92.68
2022-11-20T02:14:28.197Z,92.22
2022-11-20T02:15:30.420Z,92.11
2022-11-20T02:16:27.684Z,92.11
2022-11-20T02:17:27.688Z,92.22
2022-11-20T02:18:27.708Z,92.64
2022-11-20T02:19:27.676Z,91.58
2022-11-20T02:20:27.673Z,91.79
2022-11-20T02:21:27.674Z,91.52
2022-11-20T02:22:27.653Z,91.69
2022-11-20T02:23:27.667Z,91.20
2022-11-20T02:24:27.659Z,91.52
2022-11-20T02:25:27.646Z,91.69
2022-11-20T02:26:27.640Z,91.41
2022-11-20T02:27:27.650Z,90.88
2022-11-20T02:28:27.624Z,91.52
2022-11-20T02:29:27.629Z,91.83
2022-11-20T02:30:27.622Z,91.63
2022-11-20T02:31:29.951Z,91.52
2022-11-20T02:32:27.610Z,91.83
2022-11-20T02:33:27.622Z,92.68
2022-11-20T02:34:28.133Z,92.47
2022-11-20T02:35:27.601Z,92.51
2022-11-20T02:36:27.575Z,92.51
2022-11-20T02:37:27.589Z,92.26
2022-11-20T02:38:27.578Z,92.41
2022-11-20T02:39:27.633Z,92.19
2022-11-20T02:40:27.598Z,92.41
2022-11-20T02:41:27.590Z,92.41
2022-11-20T02:42:27.536Z,92.34
2022-11-20T02:43:27.546Z,92.83
2022-11-20T02:44:27.537Z,92.62
2022-11-20T02:45:27.552Z,92.51
2022-11-20T02:46:27.524Z,92.51
2022-11-20T02:47:27.548Z,92.83
2022-11-20T02:48:30.237Z,92.72
2022-11-20T02:49:28.512Z,92.41
2022-11-20T02:50:27.509Z,92.87
2022-11-20T02:51:27.506Z,92.87
2022-11-20T02:52:27.502Z,92.87
2022-11-20T02:53:27.527Z,92.87
2022-11-20T02:54:27.481Z,92.98
2022-11-20T02:55:27.496Z,92.55
2022-11-20T02:56:27.462Z,92.98
2022-11-20T02:57:27.471Z,92.62
2022-11-20T02:58:29.872Z,92.72
2022-11-20T02:59:27.481Z,92.77
2022-11-20T03:00:27.453Z,92.34
2022-11-20T03:01:27.565Z,92.55
2022-11-20T03:02:27.451Z,92.02
2022-11-20T03:03:27.445Z,91.92
2022-11-20T03:04:27.437Z,92.77
2022-11-20T03:05:27.521Z,92.77
2022-11-20T03:06:27.419Z,92.72
2022-11-20T03:07:27.473Z,92.34
2022-11-20T03:08:27.414Z,92.41
2022-11-20T03:09:27.417Z,92.30
2022-11-20T03:10:27.417Z,92.41
2022-11-20T03:11:27.404Z,92.19
2022-11-20T03:12:27.430Z,92.83
2022-11-20T03:13:27.403Z,92.19
2022-11-20T03:14:27.385Z,92.09
2022-11-20T03:15:27.383Z,92.19
2022-11-20T03:16:27.379Z,92.15
2022-11-20T03:17:27.383Z,92.51
2022-11-20T03:18:27.383Z,92.26
2022-11-20T03:19:27.350Z,92.36
2022-11-20T03:20:27.376Z,92.36
2022-11-20T03:21:27.364Z,91.58
2022-11-20T03:22:27.349Z,92.47
2022-11-20T03:23:27.363Z,92.32
2022-11-20T03:24:27.340Z,92.54
2022-11-20T03:25:27.326Z,92.22
2022-11-20T03:26:27.343Z,92.64
2022-11-20T03:27:27.327Z,92.11
2022-11-20T03:28:28.055Z,91.79
2022-11-20T03:29:27.358Z,91.27
2022-11-20T03:30:30.542Z,91.58
2022-11-20T03:31:27.296Z,91.69
2022-11-20T03:32:27.305Z,91.58
2022-11-20T03:33:27.291Z,91.47
2022-11-20T03:34:27.293Z,91.69
2022-11-20T03:35:27.301Z,91.63
2022-11-20T03:36:27.268Z,91.79
2022-11-20T03:37:27.260Z,92.36
2022-11-20T03:38:27.276Z,92.00
2022-11-20T03:39:27.244Z,91.79
2022-11-20T03:40:28.111Z,91.27
2022-11-20T03:41:27.250Z,92.32
2022-11-20T03:42:27.258Z,92.36
2022-11-20T03:43:27.240Z,92.36
2022-11-20T03:44:27.230Z,92.22
2022-11-20T03:45:27.215Z,91.69
2022-11-20T03:46:27.240Z,92.32
2022-11-20T03:47:27.233Z,92.43
2022-11-20T03:48:27.207Z,92.43
2022-11-20T03:49:27.937Z,91.47
2022-11-20T03:50:27.232Z,91.44
2022-11-20T03:51:27.192Z,91.64
2022-11-20T03:52:27.208Z,91.64
2022-11-20T03:53:27.190Z,91.54
2022-11-20T03:54:27.177Z,91.54
2022-11-20T03:55:27.665Z,91.33
2022-11-20T03:56:27.172Z,91.33
2022-11-20T03:57:27.173Z,91.61
2022-11-20T03:58:27.173Z,91.64
2022-11-20T03:59:27.140Z,91.39
2022-11-20T04:00:29.028Z,91.61
2022-11-20T04:01:28.162Z,91.39
2022-11-20T04:02:27.133Z,90.76
2022-11-20T04:03:27.153Z,90.86
2022-11-20T04:04:27.149Z,91.50
2022-11-20T04:05:27.116Z,92.24
2022-11-20T04:06:27.123Z,92.13
2022-11-20T04:07:27.391Z,92.52
2022-11-20T04:08:27.098Z,92.30
2022-11-20T04:09:27.086Z,92.52
2022-11-20T04:10:27.105Z,92.58
2022-11-20T04:11:27.095Z,92.33
2022-11-20T04:12:28.121Z,92.16
2022-11-20T04:13:27.128Z,91.27
2022-11-20T04:14:27.099Z,91.06
2022-11-20T04:15:27.061Z,91.06
2022-11-20T04:16:27.048Z,91.27
2022-11-20T04:17:27.048Z,91.38
2022-11-20T04:18:27.049Z,91.48
2022-11-20T04:19:27.048Z,91.27
2022-11-20T04:20:27.049Z,91.23
2022-11-20T04:21:27.077Z,91.33
2022-11-20T04:22:27.021Z,90.49
2022-11-20T04:23:28.804Z,91.13
2022-11-20T04:24:27.019Z,90.59
2022-11-20T04:25:26.997Z,90.91
2022-11-20T04:26:27.004Z,90.23
2022-11-20T04:27:27.350Z,90.28
2022-11-20T04:28:26.988Z,90.17
2022-11-20T04:29:26.977Z,90.28
2022-11-20T04:30:26.974Z,89.75
2022-11-20T04:31:26.969Z,90.59
2022-11-20T04:32:26.959Z,90.77
2022-11-20T04:33:28.989Z,90.28
2022-11-20T04:34:27.954Z,90.23
2022-11-20T04:35:26.938Z,90.13
2022-11-20T04:36:26.920Z,90.06
2022-11-20T04:37:27.091Z,90.03
2022-11-20T04:38:26.922Z,90.77
2022-11-20T04:39:26.929Z,91.04
2022-11-20T04:40:26.918Z,90.87
2022-11-20T04:41:26.917Z,90.94
2022-11-20T04:42:26.894Z,90.52
2022-11-20T04:43:26.906Z,90.41
2022-11-20T04:44:26.868Z,90.20
2022-11-20T04:45:26.885Z,90.62
2022-11-20T04:46:26.860Z,90.41
2022-11-20T04:47:26.872Z,90.30
2022-11-20T04:48:26.859Z,90.20
2022-11-20T04:49:26.904Z,90.72
2022-11-20T04:50:26.862Z,90.79
2022-11-20T04:51:27.420Z,90.89
2022-11-20T04:52:26.941Z,90.05
2022-11-20T04:53:26.901Z,90.47
2022-11-20T04:54:26.815Z,90.85
2022-11-20T04:55:26.811Z,90.69
2022-11-20T04:56:26.791Z,90.22
2022-11-20T04:57:26.812Z,90.37
2022-11-20T04:58:26.796Z,89.42
2022-11-20T04:59:26.797Z,89.10
2022-11-20T05:00:26.778Z,87.94
2022-11-20T05:01:26.923Z,88.78
2022-11-20T05:02:26.792Z,89.48
2022-11-20T05:03:26.751Z,89.59
2022-11-20T05:04:26.738Z,89.17
2022-11-20T05:05:26.755Z,88.68
2022-11-20T05:06:26.749Z,89.63
2022-11-20T05:07:26.785Z,89.42
2022-11-20T05:08:26.718Z,90.26
2022-11-20T05:09:26.727Z,90.26
2022-11-20T05:10:26.722Z,90.64
2022-11-20T05:11:26.721Z,90.43
2022-11-20T05:12:26.707Z,90.75
2022-11-20T05:13:26.689Z,90.01
2022-11-20T05:14:26.701Z,89.90
2022-11-20T05:15:26.673Z,90.54
2022-11-20T05:16:26.661Z,90.18
2022-11-20T05:17:26.674Z,89.65
2022-11-20T05:18:26.650Z,89.65
2022-11-20T05:19:26.661Z,90.28
2022-11-20T05:20:26.649Z,90.18
2022-11-20T05:21:27.027Z,90.18
2022-11-20T05:22:26.635Z,89.12
2022-11-20T05:23:26.625Z,89.34
2022-11-20T05:24:26.612Z,90.28
2022-11-20T05:25:26.643Z,90.08
2022-11-20T05:26:26.619Z,90.08
2022-11-20T05:27:26.614Z,90.60
2022-11-20T05:28:26.591Z,90.50
2022-11-20T05:29:26.591Z,90.81
2022-11-20T05:30:26.580Z,90.70
2022-11-20T05:31:27.986Z,90.28
2022-11-20T05:32:26.571Z,90.18
2022-11-20T05:33:26.570Z,89.97
2022-11-20T05:34:26.558Z,89.86
2022-11-20T05:35:26.565Z,90.08
2022-11-20T05:36:26.540Z,90.18
2022-11-20T05:37:26.534Z,89.23
2022-11-20T05:38:26.529Z,88.81
2022-11-20T05:39:26.707Z,88.92
2022-11-20T05:40:26.516Z,88.81
2022-11-20T05:41:26.513Z,89.02
2022-11-20T05:42:26.500Z,89.34
2022-11-20T05:43:26.559Z,90.28
2022-11-20T05:44:26.474Z,89.86
2022-11-20T05:45:26.502Z,89.86
2022-11-20T05:46:29.103Z,90.70
2022-11-20T05:47:26.479Z,90.81
2022-11-20T05:48:26.455Z,89.65
2022-11-20T05:49:26.459Z,89.76
2022-11-20T05:50:26.431Z,90.60
2022-11-20T05:51:26.460Z,90.45
2022-11-20T05:52:26.430Z,90.35
2022-11-20T05:53:27.794Z,90.45
2022-11-20T05:54:26.417Z,90.56
2022-11-20T05:55:26.413Z,90.03
2022-11-20T05:56:26.396Z,90.45
2022-11-20T05:57:26.418Z,90.14
2022-11-20T05:58:27.323Z,90.25
2022-11-20T05:59:26.411Z,90.14
2022-11-20T06:00:26.390Z,90.56
2022-11-20T06:01:26.399Z,90.35
2022-11-20T06:02:26.402Z,89.99
2022-11-20T06:03:26.760Z,89.57
2022-11-20T06:04:26.353Z,89.99
2022-11-20T06:05:26.373Z,89.57
2022-11-20T06:06:26.363Z,90.31
2022-11-20T06:07:26.431Z,89.89
2022-11-20T06:08:26.358Z,90.52
2022-11-20T06:09:26.333Z,90.31
2022-11-20T06:10:26.336Z,90.94
2022-11-20T06:11:26.342Z,91.15
2022-11-20T06:12:26.323Z,91.00
2022-11-20T06:13:26.306Z,90.90
2022-11-20T06:14:26.301Z,90.90
2022-11-20T06:15:26.296Z,91.11
2022-11-20T06:16:26.316Z,90.90
2022-11-20T06:17:26.298Z,91.11
2022-11-20T06:18:26.266Z,90.26
2022-11-20T06:19:26.285Z,90.58
2022-11-20T06:20:26.269Z,89.74
2022-11-20T06:21:26.249Z,90.16
2022-11-20T06:22:26.265Z,90.06
2022-11-20T06:23:26.243Z,90.48
2022-11-20T06:24:26.227Z,90.06
2022-11-20T06:25:26.243Z,90.06
2022-11-20T06:26:26.211Z,90.06
2022-11-20T06:27:26.232Z,89.84
2022-11-20T06:28:26.215Z,90.16
2022-11-20T06:29:31.322Z,90.16
2022-11-20T06:30:27.203Z,88.96
2022-11-20T06:31:26.825Z,90.06
2022-11-20T06:32:26.169Z,89.95
2022-11-20T06:33:26.190Z,90.37
2022-11-20T06:34:26.157Z,90.90
2022-11-20T06:35:26.225Z,91.11
2022-11-20T06:36:26.187Z,91.11
2022-11-20T06:37:26.167Z,91.22
2022-11-20T06:38:26.142Z,91.11
2022-11-20T06:39:26.149Z,90.90
2022-11-20T06:40:26.131Z,91.00
2022-11-20T06:41:26.261Z,90.26
2022-11-20T06:42:26.122Z,90.65
2022-11-20T06:43:26.111Z,90.65
2022-11-20T06:44:26.168Z,89.91
2022-11-20T06:45:26.112Z,90.48
2022-11-20T06:46:26.103Z,90.44
2022-11-20T06:47:26.107Z,90.69
2022-11-20T06:48:26.087Z,91.07
2022-11-20T06:49:26.074Z,90.12
2022-11-20T06:50:26.072Z,90.37
2022-11-20T06:51:26.067Z,89.53
2022-11-20T06:52:26.051Z,90.06
2022-11-20T06:53:26.075Z,90.58
2022-11-20T06:54:26.036Z,90.69
2022-11-20T06:55:26.058Z,90.80
2022-11-20T06:56:26.049Z,91.22
2022-11-20T06:57:26.028Z,91.85
2022-11-20T06:58:26.015Z,91.57
2022-11-20T06:59:26.024Z,91.99
2022-11-20T07:00:26.014Z,92.21
2022-11-20T07:01:26.049Z,92.10
2022-11-20T07:02:26.002Z,92.25
2022-11-20T07:03:26.001Z,92.25
2022-11-20T07:04:26.258Z,92.77
2022-11-20T07:05:26.033Z,92.67
2022-11-20T07:06:25.968Z,92.60
2022-11-20T07:07:26.024Z,93.03
2022-11-20T07:08:25.968Z,93.30
2022-11-20T07:09:26.153Z,93.98
2022-11-20T07:10:25.949Z,94.08
2022-11-20T07:11:25.943Z,94.93
2022-11-20T07:12:25.939Z,94.57
2022-11-20T07:13:25.936Z,94.67
2022-11-20T07:14:25.928Z,94.46
2022-11-20T07:15:26.089Z,94.57
2022-11-20T07:16:25.895Z,94.84
2022-11-20T07:17:25.944Z,94.42
2022-11-20T07:18:25.997Z,93.99
2022-11-20T07:19:26.090Z,93.68
2022-11-20T07:20:25.892Z,93.74
2022-11-20T07:21:25.877Z,93.95
2022-11-20T07:22:25.887Z,93.74
2022-11-20T07:23:25.865Z,93.85
2022-11-20T07:24:25.863Z,93.60
2022-11-20T07:25:25.872Z,93.80
2022-11-20T07:26:25.881Z,93.70
2022-11-20T07:27:27.010Z,93.24
2022-11-20T07:28:25.875Z,93.38
2022-11-20T07:29:25.834Z,93.45
2022-11-20T07:30:25.836Z,92.92
2022-11-20T07:31:26.034Z,92.50
2022-11-20T07:32:25.826Z,92.40
2022-11-20T07:33:25.826Z,92.61
2022-11-20T07:34:25.814Z,92.40
2022-11-20T07:35:25.787Z,92.82
2022-11-20T07:36:25.811Z,92.25
2022-11-20T07:37:25.798Z,92.57
2022-11-20T07:38:25.783Z,92.04
2022-11-20T07:39:25.784Z,92.35
2022-11-20T07:40:25.751Z,92.31
2022-11-20T07:41:25.823Z,91.89
2022-11-20T07:42:25.757Z,92.00
2022-11-20T07:43:25.744Z,92.42
2022-11-20T07:44:25.763Z,92.00
2022-11-20T07:45:25.751Z,92.10
2022-11-20T07:46:25.721Z,91.96
2022-11-20T07:47:26.220Z,91.85
2022-11-20T07:48:25.719Z,92.10
2022-11-20T07:49:25.731Z,92.16
2022-11-20T07:50:26.403Z,92.00
2022-11-20T07:51:25.722Z,92.06
2022-11-20T07:52:25.692Z,91.64
2022-11-20T07:53:25.714Z,91.85
2022-11-20T07:54:25.675Z,92.00
2022-11-20T07:55:25.687Z,92.10
2022-11-20T07:56:26.237Z,92.38
2022-11-20T07:57:28.493Z,92.58
2022-11-20T07:58:25.680Z,92.69
2022-11-20T07:59:25.680Z,92.80
2022-11-20T08:00:25.738Z,92.48
2022-11-20T08:01:25.774Z,92.44
2022-11-20T08:02:25.654Z,91.91
2022-11-20T08:03:25.881Z,92.44
2022-11-20T08:04:25.619Z,92.23
2022-11-20T08:05:25.647Z,92.12
2022-11-20T08:06:25.608Z,91.71
2022-11-20T08:07:25.733Z,91.87
2022-11-20T08:08:25.616Z,92.08
2022-11-20T08:09:25.603Z,91.14
2022-11-20T08:10:25.725Z,91.35
2022-11-20T08:11:25.667Z,91.66
2022-11-20T08:12:25.733Z,91.52
2022-11-20T08:13:26.222Z,90.72
2022-11-20T08:14:25.568Z,90.72
2022-11-20T08:15:25.574Z,90.67
2022-11-20T08:16:25.570Z,90.40
2022-11-20T08:17:25.607Z,89.94
2022-11-20T08:18:33.259Z,90.15
2022-11-20T08:19:27.087Z,89.73
2022-11-20T08:20:25.567Z,89.84
2022-11-20T08:21:25.543Z,89.56
2022-11-20T08:22:25.538Z,89.73
2022-11-20T08:23:26.005Z,89.04
2022-11-20T08:24:25.511Z,89.35
2022-11-20T08:25:25.539Z,89.56
2022-11-20T08:26:25.498Z,90.09
2022-11-20T08:27:25.508Z,89.98
2022-11-20T08:28:25.601Z,89.25
2022-11-20T08:29:25.496Z,90.19
2022-11-20T08:30:25.504Z,90.44
2022-11-20T08:31:25.503Z,89.81
2022-11-20T08:32:25.469Z,90.92
2022-11-20T08:33:25.483Z,91.45
2022-11-20T08:34:25.484Z,91.56
2022-11-20T08:35:25.510Z,91.41
2022-11-20T08:36:25.705Z,91.30
2022-11-20T08:37:25.502Z,91.09
2022-11-20T08:38:25.449Z,91.47
2022-11-20T08:39:25.465Z,91.58
2022-11-20T08:40:25.423Z,90.80
2022-11-20T08:41:25.435Z,90.07
2022-11-20T08:42:25.414Z,89.75
2022-11-20T08:43:25.411Z,89.65
2022-11-20T08:44:25.526Z,89.75
2022-11-20T08:45:29.620Z,89.40
2022-11-20T08:46:26.417Z,89.72
2022-11-20T08:47:25.429Z,89.72
2022-11-20T08:48:25.417Z,88.56
2022-11-20T08:49:25.390Z,87.89
2022-11-20T08:50:25.388Z,87.89
2022-11-20T08:51:25.644Z,88.10
2022-11-20T08:52:25.351Z,88.10
2022-11-20T08:53:25.367Z,87.99
2022-11-20T08:54:25.368Z,87.96
2022-11-20T08:55:25.346Z,88.17
2022-11-20T08:56:25.340Z,88.06
2022-11-20T08:57:25.373Z,88.06
2022-11-20T08:58:25.330Z,88.06
2022-11-20T08:59:50.958Z,86.80
2022-11-20T09:00:26.314Z,86.80
2022-11-20T09:01:25.479Z,86.70
2022-11-20T09:02:25.304Z,86.60
2022-11-20T09:03:29.944Z,86.63
2022-11-20T09:04:26.557Z,87.01
2022-11-20T09:05:25.338Z,87.33
2022-11-20T09:06:25.268Z,88.27
2022-11-20T09:07:25.850Z,87.85
2022-11-20T09:08:25.275Z,88.27
2022-11-20T09:09:25.568Z,88.06
2022-11-20T09:10:25.434Z,87.39
2022-11-20T09:11:25.267Z,87.18
2022-11-20T09:12:25.268Z,87.29
2022-11-20T09:13:25.265Z,86.93
2022-11-20T09:14:25.233Z,87.25
2022-11-20T09:15:25.223Z,87.25
2022-11-20T09:16:25.226Z,87.04
2022-11-20T09:17:25.219Z,87.21
2022-11-20T09:18:25.255Z,87.35
2022-11-20T09:19:41.067Z,86.90
2022-11-20T09:20:26.182Z,87.00
2022-11-20T09:21:25.216Z,86.52
2022-11-20T09:22:25.236Z,86.16
2022-11-20T09:23:25.186Z,86.16
2022-11-20T09:24:25.160Z,86.47
2022-11-20T09:25:25.220Z,87.10
2022-11-20T09:26:25.145Z,87.07
2022-11-20T09:27:25.155Z,87.21
2022-11-20T09:28:25.142Z,87.21
2022-11-20T09:29:25.154Z,87.07
2022-11-20T09:30:25.129Z,87.07
2022-11-20T09:31:25.142Z,87.07
2022-11-20T09:32:25.105Z,86.75
2022-11-20T09:33:25.284Z,86.85
2022-11-20T09:34:25.106Z,86.33
2022-11-20T09:35:25.102Z,86.54
2022-11-20T09:36:25.109Z,86.90
2022-11-20T09:37:25.079Z,86.65
2022-11-20T09:38:25.096Z,87.17
2022-11-20T09:39:25.116Z,86.54
2022-11-20T09:40:25.055Z,86.75
2022-11-20T09:41:25.062Z,87.07
2022-11-20T09:42:25.033Z,86.96
2022-11-20T09:43:25.035Z,86.96
2022-11-20T09:44:25.039Z,86.92
2022-11-20T09:45:26.594Z,86.54
2022-11-20T09:46:25.022Z,86.33
2022-11-20T09:47:25.039Z,85.98
2022-11-20T09:48:25.007Z,86.23
2022-11-20T09:49:30.704Z,86.40
2022-11-20T09:50:26.108Z,86.54
2022-11-20T09:51:24.992Z,86.40
2022-11-20T09:52:24.982Z,86.29
2022-11-20T09:53:24.991Z,85.88
2022-11-20T09:54:25.027Z,86.02
2022-11-20T09:55:24.958Z,86.44
2022-11-20T09:56:24.947Z,86.85
2022-11-20T09:57:24.966Z,86.29
2022-11-20T09:58:24.936Z,86.13
2022-11-20T09:59:25.742Z,85.77
2022-11-20T10:00:24.914Z,86.54
2022-11-20T10:01:25.196Z,86.44
2022-11-20T10:02:24.923Z,86.61
2022-11-20T10:03:24.912Z,86.75
2022-11-20T10:04:24.896Z,86.71
2022-11-20T10:05:24.882Z,86.75
2022-11-20T10:06:24.884Z,86.40
2022-11-20T10:07:33.097Z,85.88
2022-11-20T10:08:25.856Z,86.75
2022-11-20T10:09:25.021Z,86.82
2022-11-20T10:10:24.859Z,86.29
2022-11-20T10:11:24.860Z,86.08
2022-11-20T10:12:24.876Z,85.04
2022-11-20T10:13:24.850Z,85.35
2022-11-20T10:14:24.811Z,85.67
2022-11-20T10:15:24.818Z,86.61
2022-11-20T10:16:24.810Z,85.98
2022-11-20T10:17:24.802Z,84.73
2022-11-20T10:18:24.825Z,85.14
2022-11-20T10:19:24.885Z,85.25
2022-11-20T10:20:24.771Z,85.56
2022-11-20T10:21:24.795Z,86.13
2022-11-20T10:22:24.765Z,85.77
2022-11-20T10:23:26.104Z,85.67
2022-11-20T10:24:24.770Z,85.56
2022-11-20T10:25:24.788Z,85.77
2022-11-20T10:26:24.739Z,85.94
2022-11-20T10:27:24.731Z,85.98
2022-11-20T10:28:24.744Z,85.94
2022-11-20T10:29:25.003Z,85.52
2022-11-20T10:30:24.766Z,85.94
2022-11-20T10:31:24.753Z,85.11
2022-11-20T10:32:24.714Z,85.42
2022-11-20T10:33:27.109Z,85.69
2022-11-20T10:34:24.674Z,84.86
2022-11-20T10:35:24.682Z,83.50
2022-11-20T10:36:24.675Z,83.61
2022-11-20T10:37:24.679Z,84.86
2022-11-20T10:38:24.670Z,84.65
2022-11-20T10:39:25.109Z,84.72
2022-11-20T10:40:24.653Z,84.09
2022-11-20T10:41:24.621Z,84.05
2022-11-20T10:42:24.699Z,83.32
2022-11-20T10:43:24.621Z,82.80
2022-11-20T10:44:24.612Z,82.48
2022-11-20T10:45:24.612Z,83.32
2022-11-20T10:46:24.608Z,81.55
2022-11-20T10:47:24.594Z,80.71
2022-11-20T10:48:24.592Z,81.09
2022-11-20T10:49:25.258Z,80.51
2022-11-20T10:50:24.572Z,81.09
2022-11-20T10:51:25.024Z,81.51
2022-11-20T10:52:24.571Z,81.82
2022-11-20T10:53:24.558Z,82.65
2022-11-20T10:54:24.561Z,81.68
2022-11-20T10:55:24.542Z,79.63
2022-11-20T10:56:24.979Z,78.73
2022-11-20T10:57:24.528Z,78.63
2022-11-20T10:58:27.097Z,79.15
2022-11-20T10:59:24.804Z,80.23
2022-11-20T11:00:24.548Z,80.33
2022-11-20T11:01:24.704Z,81.27
2022-11-20T11:02:24.493Z,81.34
2022-11-20T11:03:24.489Z,82.84
2022-11-20T11:04:24.519Z,83.22
2022-11-20T11:05:24.496Z,83.91
2022-11-20T11:06:24.836Z,81.55
2022-11-20T11:07:24.536Z,80.92
2022-11-20T11:08:24.468Z,81.86
2022-11-20T11:09:24.710Z,81.13
2022-11-20T11:10:24.434Z,81.02
2022-11-20T11:11:24.572Z,80.61
2022-11-20T11:12:24.433Z,80.92
2022-11-20T11:13:24.413Z,80.44
2022-11-20T11:14:24.406Z,81.02
2022-11-20T11:15:24.419Z,82.28
2022-11-20T11:16:24.832Z,81.16
2022-11-20T11:17:24.395Z,81.06
2022-11-20T11:18:24.462Z,80.89
2022-11-20T11:19:24.702Z,80.89
2022-11-20T11:20:24.370Z,81.24
2022-11-20T11:21:24.554Z,82.87
2022-11-20T11:22:24.346Z,83.29
2022-11-20T11:23:24.434Z,81.48
2022-11-20T11:24:41.545Z,81.59
2022-11-20T11:25:25.356Z,82.42
2022-11-20T11:26:24.350Z,82.94
2022-11-20T11:27:24.400Z,82.70
2022-11-20T11:28:24.351Z,83.18
2022-11-20T11:29:24.714Z,82.76
2022-11-20T11:30:24.313Z,80.85
2022-11-20T11:31:24.298Z,81.75
2022-11-20T11:32:24.312Z,80.71
2022-11-20T11:33:24.321Z,79.87
2022-11-20T11:34:24.287Z,79.04
2022-11-20T11:35:24.272Z,79.77
2022-11-20T11:36:24.261Z,79.00
2022-11-20T11:37:24.269Z,78.94
2022-11-20T11:38:24.268Z,78.17
2022-11-20T11:39:24.760Z,78.52
2022-11-20T11:40:25.241Z,78.63
2022-11-20T11:41:24.226Z,78.56
2022-11-20T11:42:24.221Z,80.54
2022-11-20T11:43:24.239Z,80.33
2022-11-20T11:44:24.641Z,81.72
2022-11-20T11:45:24.225Z,80.51
2022-11-20T11:46:24.197Z,80.40
2022-11-20T11:47:24.199Z,81.86
2022-11-20T11:48:24.185Z,82.00
2022-11-20T11:49:25.582Z,82.94
2022-11-20T11:50:24.179Z,82.53
2022-11-20T11:51:24.181Z,82.84
2022-11-20T11:52:24.155Z,82.63
2022-11-20T11:53:24.201Z,82.31
2022-11-20T11:54:24.169Z,82.55
2022-11-20T11:55:24.670Z,81.75
2022-11-20T11:56:24.133Z,79.32
2022-11-20T11:57:24.123Z,79.07
2022-11-20T11:58:24.129Z,79.03
2022-11-20T11:59:24.484Z,77.96
2022-11-20T12:00:24.184Z,76.78
2022-11-20T12:01:24.155Z,77.47
2022-11-20T12:02:24.170Z,76.61
2022-11-20T12:03:24.103Z,76.47
2022-11-20T12:04:24.073Z,74.26
2022-11-20T12:05:24.103Z,73.49
2022-11-20T12:06:24.069Z,73.67
2022-11-20T12:07:45.612Z,71.91
2022-11-20T12:08:25.146Z,72.42
2022-11-20T12:09:24.378Z,71.39
2022-11-20T12:10:24.893Z,70.87
2022-11-20T12:11:24.047Z,71.91
2022-11-20T12:12:24.023Z,73.84
2022-11-20T12:13:24.047Z,74.02
2022-11-20T12:14:24.044Z,72.94
2022-11-20T12:15:24.068Z,70.98
2022-11-20T12:16:24.014Z,70.98
2022-11-20T12:17:24.010Z,69.87
2022-11-20T12:18:23.998Z,69.25
2022-11-20T12:19:24.268Z,70.60
2022-11-20T12:20:24.029Z,70.32
2022-11-20T12:21:23.979Z,70.25
2022-11-20T12:22:24.104Z,71.91
2022-11-20T12:23:23.977Z,71.49
2022-11-20T12:24:23.937Z,70.28
2022-11-20T12:25:24.560Z,72.77
2022-11-20T12:26:23.949Z,71.53
2022-11-20T12:27:23.942Z,72.01
2022-11-20T12:28:23.963Z,71.63
2022-11-20T12:29:24.374Z,70.42
2022-11-20T12:30:23.904Z,70.66
2022-11-20T12:31:23.917Z,71.62
2022-11-20T12:32:23.895Z,73.08
2022-11-20T12:33:23.890Z,73.18
2022-11-20T12:34:23.876Z,72.66
2022-11-20T12:35:23.901Z,72.97
2022-11-20T12:36:23.871Z,73.70
2022-11-20T12:37:23.880Z,73.25
2022-11-20T12:38:23.859Z,73.05
2022-11-20T12:39:24.321Z,72.14
2022-11-20T12:40:23.852Z,70.69
2022-11-20T12:41:23.835Z,70.38
2022-11-20T12:42:23.824Z,73.08
2022-11-20T12:43:23.837Z,72.97
2022-11-20T12:44:24.609Z,71.66
2022-11-20T12:45:23.823Z,72.25
2022-11-20T12:46:23.811Z,74.11
2022-11-20T12:47:23.818Z,73.49
2022-11-20T12:48:24.229Z,71.24
2022-11-20T12:49:24.114Z,71.66
2022-11-20T12:50:23.855Z,72.73
2022-11-20T12:51:23.789Z,73.14
2022-11-20T12:52:23.764Z,72.45